createdAt,value
2017-07-08T00:00:50.924Z,9.17
2017-07-08T00:03:19.463Z,10.67
2017-07-08T00:05:46.952Z,8.13
2017-07-08T00:08:14.550Z,7.10
2017-07-08T00:10:42.026Z,8.10
2017-07-08T00:13:09.510Z,11.40
2017-07-08T00:15:37.223Z,10.60
2017-07-08T00:18:04.779Z,13.40
2017-07-08T00:20:33.032Z,8.33
2017-07-08T00:23:00.571Z,9.73
2017-07-08T00:25:28.089Z,6.67
2017-07-08T00:27:55.579Z,9.77
2017-07-08T00:30:23.072Z,9.10
2017-07-08T00:32:50.563Z,9.77
2017-07-08T00:35:18.060Z,11.13
2017-07-08T00:37:45.577Z,9.13
2017-07-08T00:40:13.078Z,11.03
2017-07-08T00:42:40.589Z,9.23
2017-07-08T00:45:08.882Z,9.50
2017-07-08T00:47:36.418Z,9.80
2017-07-08T00:50:04.686Z,11.40
2017-07-08T00:52:33.095Z,10.87
2017-07-08T00:55:00.598Z,11.60
2017-07-08T00:57:28.082Z,7.30
2017-07-08T00:59:56.371Z,9.20
2017-07-08T01:02:24.637Z,6.83
2017-07-08T01:04:52.905Z,10.00
2017-07-08T01:07:21.438Z,11.03
2017-07-08T01:09:49.005Z,10.23
2017-07-08T01:12:16.485Z,6.63
2017-07-08T01:14:44.010Z,13.77
2017-07-08T01:17:12.353Z,9.13
2017-07-08T01:19:40.657Z,7.27
2017-07-08T01:22:08.189Z,8.73
2017-07-08T01:24:36.453Z,13.30
2017-07-08T01:27:03.955Z,9.53
2017-07-08T01:29:31.487Z,9.93
2017-07-08T01:31:59.754Z,9.63
2017-07-08T01:34:27.225Z,7.93
2017-07-08T01:36:55.503Z,8.83
2017-07-08T01:39:23.757Z,8.60
2017-07-08T01:41:51.253Z,8.90
2017-07-08T01:44:18.777Z,8.73
2017-07-08T01:46:46.286Z,9.03
2017-07-08T01:49:13.774Z,18.10
2017-07-08T01:51:41.491Z,10.07
2017-07-08T01:54:08.973Z,11.97
2017-07-08T01:56:36.455Z,9.27
2017-07-08T01:59:03.982Z,11.50
2017-07-08T02:01:31.547Z,9.63
2017-07-08T02:03:59.070Z,11.10
2017-07-08T02:06:27.340Z,10.00
2017-07-08T02:08:56.376Z,11.20
2017-07-08T02:11:23.885Z,10.30
2017-07-08T02:13:51.401Z,10.33
2017-07-08T02:16:18.885Z,11.43
2017-07-08T02:18:46.376Z,12.23
2017-07-08T02:21:14.656Z,11.27
2017-07-08T02:23:42.938Z,12.27
2017-07-08T02:26:11.316Z,12.60
2017-07-08T02:28:39.575Z,12.13
2017-07-08T02:31:07.877Z,16.70
2017-07-08T02:33:35.362Z,12.33
2017-07-08T02:36:02.896Z,13.03
2017-07-08T02:38:30.411Z,12.87
2017-07-08T02:40:57.904Z,16.20
2017-07-08T02:43:26.215Z,17.40
2017-07-08T02:45:53.748Z,14.63
2017-07-08T02:48:21.263Z,16.30
2017-07-08T02:50:48.752Z,18.00
2017-07-08T02:53:17.241Z,14.27
2017-07-08T02:55:45.500Z,16.30
2017-07-08T02:58:13.014Z,17.40
2017-07-08T03:00:40.751Z,18.50
2017-07-08T03:03:08.266Z,13.43
2017-07-08T03:05:35.858Z,14.30
2017-07-08T03:08:04.141Z,14.17
2017-07-08T03:10:31.634Z,21.67
2017-07-08T03:12:59.132Z,13.23
2017-07-08T03:15:26.669Z,14.83
2017-07-08T03:17:54.200Z,20.10
2017-07-08T03:20:21.709Z,20.57
2017-07-08T03:22:49.295Z,18.13
2017-07-08T03:25:17.566Z,21.63
2017-07-08T03:27:45.829Z,19.30
2017-07-08T03:30:13.337Z,17.23
2017-07-08T03:32:40.833Z,21.30
2017-07-08T03:35:08.323Z,17.53
2017-07-08T03:37:35.837Z,18.30
2017-07-08T03:40:03.345Z,20.03
2017-07-08T03:42:30.832Z,21.07
2017-07-08T03:44:58.339Z,19.53
2017-07-08T03:47:25.837Z,20.07
2017-07-08T03:49:53.964Z,20.43
2017-07-08T03:52:21.505Z,23.53
2017-07-08T03:54:49.014Z,17.80
2017-07-08T03:57:16.587Z,19.67
2017-07-08T03:59:44.138Z,19.73
2017-07-08T04:02:11.709Z,18.17
2017-07-08T04:04:39.206Z,18.23
2017-07-08T04:07:06.870Z,22.23
2017-07-08T04:09:34.361Z,14.47
2017-07-08T04:12:02.623Z,17.93
2017-07-08T04:14:30.163Z,26.00
2017-07-08T04:16:57.692Z,19.17
2017-07-08T04:19:25.182Z,18.47
2017-07-08T04:21:52.682Z,19.37
2017-07-08T04:24:20.955Z,21.60
2017-07-08T04:26:49.244Z,21.07
2017-07-08T04:29:16.767Z,20.17
2017-07-08T04:31:44.300Z,19.47
2017-07-08T04:34:11.804Z,21.60
2017-07-08T04:36:40.296Z,20.60
2017-07-08T04:39:07.823Z,24.17
2017-07-08T04:41:35.348Z,20.73
2017-07-08T04:44:02.879Z,49.43
2017-07-08T04:46:31.277Z,25.60
2017-07-08T04:48:58.851Z,21.87
2017-07-08T04:51:26.383Z,23.47
2017-07-08T04:53:53.934Z,22.37
2017-07-08T04:56:21.420Z,22.90
2017-07-08T04:58:48.958Z,26.90
2017-07-08T05:01:16.510Z,26.23
2017-07-08T05:03:44.069Z,22.63
2017-07-08T05:06:12.352Z,30.53
2017-07-08T05:08:39.842Z,25.67
2017-07-08T05:11:07.350Z,24.40
2017-07-08T05:13:35.801Z,23.73
2017-07-08T05:16:03.307Z,23.80
2017-07-08T05:18:30.815Z,25.00
2017-07-08T05:20:58.437Z,20.60
2017-07-08T05:23:25.933Z,29.43
2017-07-08T05:25:53.440Z,24.80
2017-07-08T05:28:21.745Z,24.50
2017-07-08T05:30:49.218Z,24.73
2017-07-08T05:33:16.712Z,30.50
2017-07-08T05:35:44.229Z,23.60
2017-07-08T05:38:11.719Z,24.03
2017-07-08T05:40:39.319Z,27.00
2017-07-08T05:43:06.832Z,23.43
2017-07-08T05:45:34.330Z,24.83
2017-07-08T05:48:02.617Z,22.53
2017-07-08T05:50:30.131Z,24.23
2017-07-08T05:52:57.648Z,21.47
2017-07-08T05:55:25.157Z,23.50
2017-07-08T05:57:52.843Z,22.27
2017-07-08T06:00:21.104Z,23.70
2017-07-08T06:02:48.602Z,26.73
2017-07-08T06:05:16.106Z,23.67
2017-07-08T06:07:43.610Z,20.20
2017-07-08T06:10:11.292Z,19.40
2017-07-08T06:12:38.832Z,18.33
2017-07-08T06:15:06.317Z,23.97
2017-07-08T06:17:33.971Z,21.13
2017-07-08T06:20:01.490Z,23.13
2017-07-08T06:22:29.793Z,18.00
2017-07-08T06:24:57.286Z,18.50
2017-07-08T06:27:24.889Z,26.73
2017-07-08T06:29:53.659Z,18.83
2017-07-08T06:32:21.193Z,18.07
2017-07-08T06:34:48.695Z,18.10
2017-07-08T06:37:16.953Z,18.60
2017-07-08T06:39:44.827Z,19.57
2017-07-08T06:42:12.337Z,19.80
2017-07-08T06:44:39.856Z,24.63
2017-07-08T06:47:08.111Z,25.00
2017-07-08T06:49:35.627Z,18.47
2017-07-08T06:52:03.165Z,18.80
2017-07-08T06:54:30.723Z,17.53
2017-07-08T06:56:58.242Z,15.43
2017-07-08T06:59:25.757Z,22.27
2017-07-08T07:01:53.239Z,25.50
2017-07-08T07:04:20.751Z,17.97
2017-07-08T07:06:49.152Z,16.10
2017-07-08T07:09:16.629Z,19.70
2017-07-08T07:11:45.766Z,17.87
2017-07-08T07:14:13.310Z,16.17
2017-07-08T07:16:41.077Z,19.13
2017-07-08T07:19:08.703Z,15.90
2017-07-08T07:21:36.198Z,15.57
2017-07-08T07:24:03.692Z,23.23
2017-07-08T07:26:32.200Z,21.53
2017-07-08T07:28:59.722Z,17.87
2017-07-08T07:31:27.981Z,16.13
2017-07-08T07:33:55.506Z,16.63
2017-07-08T07:36:22.987Z,15.97
2017-07-08T07:38:50.928Z,17.03
2017-07-08T07:41:18.734Z,16.73
2017-07-08T07:43:46.166Z,16.33
2017-07-08T07:46:13.973Z,19.70
2017-07-08T07:48:42.263Z,18.33
2017-07-08T07:51:09.787Z,20.53
2017-07-08T07:53:37.306Z,20.43
2017-07-08T07:56:04.818Z,21.60
2017-07-08T07:58:32.408Z,23.63
2017-07-08T08:00:59.915Z,18.80
2017-07-08T08:03:27.413Z,20.10
2017-07-08T08:05:55.717Z,22.63
2017-07-08T08:08:23.260Z,20.43
2017-07-08T08:10:50.744Z,22.30
2017-07-08T08:13:18.298Z,19.80
2017-07-08T08:15:45.789Z,18.30
2017-07-08T08:18:13.400Z,20.03
2017-07-08T08:20:40.905Z,22.20
2017-07-08T08:23:08.390Z,20.20
2017-07-08T08:25:35.932Z,20.10
2017-07-08T08:28:03.664Z,18.37
2017-07-08T08:30:31.186Z,24.40
2017-07-08T08:32:59.460Z,19.93
2017-07-08T08:35:27.755Z,25.37
2017-07-08T08:37:55.266Z,24.90
2017-07-08T08:40:23.583Z,24.33
2017-07-08T08:42:51.871Z,20.43
2017-07-08T08:45:19.448Z,27.00
2017-07-08T08:47:46.940Z,27.77
2017-07-08T08:50:14.465Z,31.07
2017-07-08T08:52:41.982Z,31.67
2017-07-08T08:55:10.257Z,29.40
2017-07-08T08:57:37.842Z,26.23
2017-07-08T09:00:05.336Z,27.17
2017-07-08T09:02:33.219Z,28.70
2017-07-08T09:05:00.743Z,24.17
2017-07-08T09:07:28.448Z,25.93
2017-07-08T09:09:55.936Z,23.77
2017-07-08T09:12:24.221Z,26.93
2017-07-08T09:14:51.727Z,23.97
2017-07-08T09:17:19.230Z,22.27
2017-07-08T09:19:47.502Z,29.63
2017-07-08T09:22:15.793Z,22.57
2017-07-08T09:24:43.361Z,23.67
2017-07-08T09:27:10.979Z,22.30
2017-07-08T09:29:38.594Z,24.17
2017-07-08T09:32:07.739Z,21.80
2017-07-08T09:34:36.767Z,24.50
2017-07-08T09:37:05.450Z,23.97
2017-07-08T09:39:32.944Z,21.47
2017-07-08T09:42:00.477Z,19.43
2017-07-08T09:44:27.971Z,20.73
2017-07-08T09:46:55.468Z,22.43
2017-07-08T09:49:23.761Z,18.40
2017-07-08T09:51:52.021Z,19.07
2017-07-08T09:54:20.295Z,17.37
2017-07-08T09:56:48.672Z,16.53
2017-07-08T09:59:16.175Z,14.10
2017-07-08T10:01:43.682Z,13.67
2017-07-08T10:04:11.304Z,14.17
2017-07-08T10:06:38.843Z,14.87
2017-07-08T10:09:06.348Z,13.47
2017-07-08T10:14:07.840Z,14.23
2017-07-08T10:16:35.363Z,13.20
2017-07-08T10:19:02.865Z,12.43
2017-07-08T10:21:31.145Z,12.73
2017-07-08T10:23:58.653Z,13.67
2017-07-08T10:26:26.162Z,12.17
2017-07-08T10:28:54.420Z,13.20
2017-07-08T10:31:21.948Z,11.97
2017-07-08T10:33:49.462Z,11.73
2017-07-08T10:36:17.714Z,13.03
2017-07-08T10:38:45.249Z,14.50
2017-07-08T10:41:12.771Z,13.60
2017-07-08T10:43:40.302Z,14.37
2017-07-08T10:46:07.812Z,13.50
2017-07-08T10:48:35.323Z,14.03
2017-07-08T10:51:03.595Z,13.30
2017-07-08T10:53:31.907Z,13.70
2017-07-08T10:55:59.497Z,16.67
2017-07-08T10:58:27.009Z,12.93
2017-07-08T11:00:55.306Z,14.33
2017-07-08T11:03:22.786Z,16.33
2017-07-08T11:05:50.279Z,15.07
2017-07-08T11:08:17.821Z,17.07
2017-07-08T11:10:45.323Z,10.93
2017-07-08T11:13:13.623Z,13.47
2017-07-08T11:15:41.145Z,15.33
2017-07-08T11:18:08.644Z,13.57
2017-07-08T11:20:36.355Z,12.40
2017-07-08T11:23:03.876Z,11.10
2017-07-08T11:25:31.373Z,12.73
2017-07-08T11:27:58.972Z,8.77
2017-07-08T11:30:26.465Z,11.80
2017-07-08T11:32:54.834Z,11.10
2017-07-08T11:35:22.368Z,10.93
2017-07-08T11:37:50.616Z,9.87
2017-07-08T11:40:18.115Z,9.43
2017-07-08T11:42:45.621Z,9.30
2017-07-08T11:45:13.115Z,7.50
2017-07-08T11:47:41.360Z,8.97
2017-07-08T11:50:08.967Z,7.97
2017-07-08T11:52:36.469Z,7.37
2017-07-08T11:55:03.965Z,8.30
2017-07-08T11:57:32.248Z,8.53
2017-07-08T12:00:00.499Z,7.77
2017-07-08T12:02:27.988Z,7.83
2017-07-08T12:04:55.495Z,7.10
2017-07-08T12:07:22.985Z,8.00
2017-07-08T12:09:51.945Z,7.50
2017-07-08T12:12:19.464Z,6.83
2017-07-08T12:14:46.975Z,7.50
2017-07-08T12:17:14.478Z,11.50
2017-07-08T12:19:42.071Z,8.13
2017-07-08T12:22:09.617Z,10.17
2017-07-08T12:24:37.125Z,9.43
2017-07-08T12:27:04.621Z,7.83
2017-07-08T12:29:32.107Z,11.13
2017-07-08T12:31:59.613Z,7.23
2017-07-08T12:34:27.905Z,9.37
2017-07-08T12:36:55.420Z,6.73
2017-07-08T12:39:22.900Z,7.57
2017-07-08T12:41:50.403Z,8.10
2017-07-08T12:44:17.896Z,8.00
2017-07-08T12:46:45.408Z,7.33
2017-07-08T12:49:12.933Z,7.87
2017-07-08T12:51:40.416Z,5.83
2017-07-08T12:54:07.935Z,7.10
2017-07-08T12:56:35.658Z,7.30
2017-07-08T12:59:03.147Z,9.30
2017-07-08T13:01:30.654Z,7.63
2017-07-08T13:03:58.234Z,8.50
2017-07-08T13:06:25.907Z,7.67
2017-07-08T13:08:53.388Z,7.87
2017-07-08T13:11:21.118Z,10.17
2017-07-08T13:13:48.620Z,8.07
2017-07-08T13:16:16.110Z,7.60
2017-07-08T13:18:44.393Z,8.73
2017-07-08T13:21:12.650Z,9.33
2017-07-08T13:23:40.234Z,10.03
2017-07-08T13:26:08.603Z,8.40
2017-07-08T13:28:36.854Z,7.70
2017-07-08T13:31:04.339Z,7.07
2017-07-08T13:33:32.602Z,6.33
2017-07-08T13:36:00.130Z,7.23
2017-07-08T13:38:27.631Z,6.93
2017-07-08T13:40:56.749Z,6.07
2017-07-08T13:43:24.264Z,7.40
2017-07-08T13:45:52.090Z,7.70
2017-07-08T13:48:19.607Z,5.97
2017-07-08T13:50:47.890Z,6.13
2017-07-08T13:53:16.141Z,6.50
2017-07-08T13:55:43.646Z,5.73
2017-07-08T13:58:11.230Z,5.30
2017-07-08T14:00:38.713Z,4.33
2017-07-08T14:03:07.121Z,6.93
2017-07-08T14:05:35.437Z,6.80
2017-07-08T14:08:20.730Z,6.73
2017-07-08T14:10:48.259Z,7.07
2017-07-08T14:13:15.738Z,7.07
2017-07-08T14:15:43.294Z,7.40
2017-07-08T14:18:10.786Z,7.23
2017-07-08T14:20:38.261Z,8.27
2017-07-08T14:23:05.817Z,7.43
2017-07-08T14:25:33.324Z,8.20
2017-07-08T14:28:00.819Z,6.60
2017-07-08T14:30:29.125Z,6.10
2017-07-08T14:32:57.378Z,6.00
2017-07-08T14:35:24.993Z,6.17
2017-07-08T14:37:52.532Z,5.40
2017-07-08T14:40:20.788Z,5.90
2017-07-08T14:42:48.273Z,6.30
2017-07-08T14:45:15.797Z,6.63
2017-07-08T14:47:43.284Z,5.57
2017-07-08T14:50:10.772Z,8.23
2017-07-08T14:52:38.511Z,7.27
2017-07-08T14:55:06.083Z,7.00
2017-07-08T14:57:33.637Z,6.60
2017-07-08T15:00:01.143Z,5.13
2017-07-08T15:02:28.636Z,6.10
2017-07-08T15:04:56.130Z,5.67
2017-07-08T15:07:23.666Z,5.97
2017-07-08T15:09:51.171Z,9.07
2017-07-08T15:12:18.683Z,6.70
2017-07-08T15:14:46.203Z,6.63
2017-07-08T15:17:13.721Z,6.30
2017-07-08T15:19:41.221Z,8.37
2017-07-08T15:22:08.759Z,8.47
2017-07-08T15:24:36.275Z,7.17
2017-07-08T15:27:03.782Z,7.07
2017-07-08T15:29:31.304Z,10.53
2017-07-08T15:31:58.827Z,11.40
2017-07-08T15:34:26.309Z,8.63
2017-07-08T15:36:54.599Z,8.03
2017-07-08T15:39:22.106Z,9.87
2017-07-08T15:41:49.593Z,8.70
2017-07-08T15:44:17.896Z,9.00
2017-07-08T15:46:45.379Z,7.00
2017-07-08T15:49:12.862Z,7.20
2017-07-08T15:51:40.380Z,6.77
2017-07-08T15:54:07.917Z,6.90
2017-07-08T15:56:36.203Z,5.93
2017-07-08T15:59:03.727Z,10.93
2017-07-08T16:01:31.230Z,9.40
2017-07-08T16:03:58.740Z,10.03
2017-07-08T16:06:26.331Z,14.03
2017-07-08T16:08:53.820Z,8.10
2017-07-08T16:11:21.349Z,5.70
2017-07-08T16:13:48.864Z,8.67
2017-07-08T16:16:16.388Z,8.70
2017-07-08T16:18:43.916Z,7.10
2017-07-08T16:21:12.171Z,7.10
2017-07-08T16:23:39.662Z,5.53
2017-07-08T16:26:07.179Z,5.77
2017-07-08T16:28:34.663Z,5.53
2017-07-08T16:31:02.934Z,5.53
2017-07-08T16:33:30.447Z,5.60
2017-07-08T16:35:57.942Z,5.83
2017-07-08T16:38:25.432Z,6.07
2017-07-08T16:40:53.100Z,5.10
2017-07-08T16:43:20.680Z,6.93
2017-07-08T16:45:48.244Z,9.17
2017-07-08T16:48:15.754Z,6.43
2017-07-08T16:50:44.051Z,5.77
2017-07-08T16:53:11.650Z,5.20
2017-07-08T16:55:39.189Z,7.10
2017-07-08T16:58:06.665Z,6.57
2017-07-08T17:00:34.335Z,5.53
2017-07-08T17:03:02.690Z,4.80
2017-07-08T17:05:30.178Z,6.53
2017-07-08T17:07:57.700Z,6.13
2017-07-08T17:10:25.222Z,5.83
2017-07-08T17:12:52.799Z,5.20
2017-07-08T17:15:21.069Z,5.23
2017-07-08T17:17:49.374Z,4.47
2017-07-08T17:20:16.914Z,6.20
2017-07-08T17:22:45.181Z,4.97
2017-07-08T17:25:12.675Z,5.03
2017-07-08T17:27:40.555Z,5.87
2017-07-08T17:30:08.048Z,7.33
2017-07-08T17:32:35.569Z,4.80
2017-07-08T17:35:03.086Z,9.77
2017-07-08T17:37:30.590Z,5.63
2017-07-08T17:39:58.393Z,4.57
2017-07-08T17:42:26.044Z,5.10
2017-07-08T17:44:53.523Z,4.80
2017-07-08T17:47:21.012Z,5.43
2017-07-08T17:49:48.576Z,6.83
2017-07-08T17:52:16.048Z,6.53
2017-07-08T17:54:43.530Z,6.00
2017-07-08T17:57:11.057Z,6.10
2017-07-08T17:59:38.550Z,8.47
2017-07-08T18:02:06.038Z,5.60
2017-07-08T18:04:33.543Z,5.00
2017-07-08T18:07:01.042Z,5.40
2017-07-08T18:09:28.521Z,13.90
2017-07-08T18:11:57.561Z,5.40
2017-07-08T18:14:25.096Z,5.40
2017-07-08T18:16:52.577Z,4.77
2017-07-08T18:19:20.094Z,4.50
2017-07-08T18:21:48.346Z,6.40
2017-07-08T18:24:15.844Z,5.67
2017-07-08T18:26:43.364Z,5.67
2017-07-08T18:29:10.858Z,5.40
2017-07-08T18:31:39.097Z,7.43
2017-07-08T18:34:06.683Z,13.83
2017-07-08T18:36:34.959Z,5.30
2017-07-08T18:39:03.215Z,5.07
2017-07-08T18:41:30.721Z,6.97
2017-07-08T18:43:58.229Z,5.13
2017-07-08T18:46:25.704Z,6.30
2017-07-08T18:48:53.393Z,6.60
2017-07-08T18:51:21.097Z,10.17
2017-07-08T18:53:48.627Z,7.40
2017-07-08T18:56:16.157Z,6.37
2017-07-08T18:58:44.433Z,7.57
2017-07-08T19:01:12.687Z,7.97
2017-07-08T19:03:40.284Z,7.17
2017-07-08T19:06:09.478Z,11.60
2017-07-08T19:08:37.785Z,7.20
2017-07-08T19:11:05.286Z,8.60
2017-07-08T19:13:32.808Z,12.07
2017-07-08T19:16:00.300Z,17.10
2017-07-08T19:18:27.831Z,12.30
2017-07-08T19:20:55.340Z,10.67
2017-07-08T19:23:23.627Z,10.37
2017-07-08T19:25:51.945Z,13.40
2017-07-08T19:28:19.484Z,14.33
2017-07-08T19:30:46.978Z,16.73
2017-07-08T19:33:14.494Z,10.07
2017-07-08T19:35:42.026Z,11.17
2017-07-08T19:38:10.224Z,11.37
2017-07-08T19:40:37.759Z,10.80
2017-07-08T19:43:06.031Z,8.87
2017-07-08T19:45:33.527Z,8.77
2017-07-08T19:48:01.053Z,11.20
2017-07-08T19:50:28.680Z,10.83
2017-07-08T19:52:56.178Z,9.60
2017-07-08T19:55:24.456Z,11.47
2017-07-08T19:57:52.721Z,79.70
2017-07-08T20:00:20.218Z,23.13
2017-07-08T20:02:47.742Z,15.77
2017-07-08T20:05:15.271Z,15.03
2017-07-08T20:07:42.803Z,14.93
2017-07-08T20:10:10.660Z,9.10
2017-07-08T20:12:38.236Z,11.03
2017-07-08T20:15:06.498Z,11.50
2017-07-08T20:17:34.076Z,15.50
2017-07-08T20:20:01.633Z,13.53
2017-07-08T20:22:29.443Z,14.90
2017-07-08T20:24:56.985Z,11.77
2017-07-08T20:27:24.469Z,11.10
2017-07-08T20:29:52.040Z,11.60
2017-07-08T20:32:20.331Z,13.37
2017-07-08T20:34:47.822Z,14.40
2017-07-08T20:37:16.235Z,11.87
2017-07-08T20:39:43.763Z,18.43
2017-07-08T20:42:11.268Z,16.37
2017-07-08T20:44:38.785Z,14.63
2017-07-08T20:47:06.311Z,16.83
2017-07-08T20:49:33.832Z,28.07
2017-07-08T20:52:01.334Z,19.00
2017-07-08T20:54:29.003Z,13.90
2017-07-08T20:56:56.499Z,14.03
2017-07-08T20:59:23.990Z,12.80
2017-07-08T21:01:52.284Z,15.87
2017-07-08T21:04:19.829Z,12.67
2017-07-08T21:06:48.110Z,14.73
2017-07-08T21:09:16.382Z,13.23
2017-07-08T21:11:44.697Z,15.10
2017-07-08T21:14:12.215Z,17.20
2017-07-08T21:16:40.488Z,12.77
2017-07-08T21:19:08.171Z,17.17
2017-07-08T21:21:36.446Z,17.60
2017-07-08T21:24:04.725Z,18.07
2017-07-08T21:26:32.251Z,24.63
2017-07-08T21:28:59.744Z,16.63
2017-07-08T21:31:27.251Z,24.60
2017-07-08T21:33:54.784Z,16.30
2017-07-08T21:36:23.318Z,17.03
2017-07-08T21:38:50.929Z,17.10
2017-07-08T21:41:18.473Z,26.90
2017-07-08T21:43:45.973Z,21.87
2017-07-08T21:46:13.507Z,15.80
2017-07-08T21:48:41.020Z,20.70
2017-07-08T21:51:08.510Z,14.23
2017-07-08T21:53:36.029Z,14.00
2017-07-08T21:56:03.575Z,17.57
2017-07-08T21:58:31.119Z,15.50
2017-07-08T22:00:58.614Z,16.10
2017-07-08T22:03:26.133Z,16.00
2017-07-08T22:05:53.634Z,14.67
2017-07-08T22:08:21.906Z,15.27
2017-07-08T22:10:49.459Z,14.70
2017-07-08T22:13:16.994Z,15.27
2017-07-08T22:15:44.488Z,19.50
2017-07-08T22:18:12.008Z,15.50
2017-07-08T22:20:39.529Z,15.57
2017-07-08T22:23:07.266Z,14.53
2017-07-08T22:25:34.788Z,16.83
2017-07-08T22:28:02.296Z,17.20
2017-07-08T22:30:30.554Z,15.17
2017-07-08T22:32:58.068Z,17.40
2017-07-08T22:35:25.603Z,17.43
2017-07-08T22:37:53.104Z,19.07
2017-07-08T22:40:20.670Z,17.13
2017-07-08T22:42:48.186Z,18.27
2017-07-08T22:45:15.700Z,19.77
2017-07-08T22:47:43.230Z,23.57
2017-07-08T22:50:10.746Z,18.63
2017-07-08T22:52:39.025Z,18.33
2017-07-08T22:55:07.324Z,16.20
2017-07-08T22:57:34.812Z,17.53
2017-07-08T23:00:02.310Z,19.60
2017-07-08T23:02:30.615Z,18.30
2017-07-08T23:04:58.136Z,24.47
2017-07-08T23:07:26.455Z,17.23
2017-07-08T23:09:53.993Z,26.00
2017-07-08T23:12:22.254Z,19.43
2017-07-08T23:14:49.736Z,20.80
2017-07-08T23:17:18.054Z,25.30
2017-07-08T23:19:45.560Z,25.33
2017-07-08T23:22:13.852Z,24.07
2017-07-08T23:24:42.181Z,23.23
2017-07-08T23:27:09.702Z,21.43
2017-07-08T23:29:37.192Z,19.17
2017-07-08T23:32:04.706Z,19.50
2017-07-08T23:34:32.212Z,19.50
2017-07-08T23:36:59.710Z,26.73
2017-07-08T23:39:27.271Z,21.00
2017-07-08T23:41:54.784Z,24.40
2017-07-08T23:44:22.299Z,19.23
2017-07-08T23:46:50.701Z,20.10
2017-07-08T23:49:18.236Z,20.90
2017-07-08T23:51:45.731Z,15.77
2017-07-08T23:54:13.357Z,18.03
2017-07-08T23:56:41.616Z,19.60
2017-07-08T23:59:09.341Z,15.40
